createdAt,value
2017-04-14T00:00:09.223Z,14.42
2017-04-14T00:01:09.422Z,16.05
2017-04-14T00:02:09.825Z,20.02
2017-04-14T00:03:10.644Z,21.80
2017-04-14T00:04:10.776Z,20.07
2017-04-14T00:05:11.659Z,18.25
2017-04-14T00:06:11.738Z,20.03
2017-04-14T00:07:12.238Z,12.48
2017-04-14T00:08:12.384Z,14.35
2017-04-14T00:09:12.422Z,18.85
2017-04-14T00:10:18.101Z,20.07
2017-04-14T00:11:18.211Z,17.35
2017-04-14T00:12:18.617Z,18.75
2017-04-14T00:13:19.419Z,16.30
2017-04-14T00:14:19.473Z,23.08
2017-04-14T00:15:19.620Z,27.80
2017-04-14T00:16:19.700Z,17.98
2017-04-14T00:17:20.084Z,15.67
2017-04-14T00:18:20.187Z,15.25
2017-04-14T00:19:20.372Z,17.33
2017-04-14T00:20:20.451Z,23.75
2017-04-14T00:21:20.523Z,19.00
2017-04-14T00:22:21.019Z,19.92
2017-04-14T00:23:21.052Z,16.33
2017-04-14T00:24:21.139Z,14.73
2017-04-14T00:25:21.265Z,17.47
2017-04-14T00:26:21.594Z,14.20
2017-04-14T00:27:22.212Z,18.02
2017-04-14T00:28:23.431Z,23.85
2017-04-14T00:29:23.523Z,21.25
2017-04-14T00:30:23.586Z,17.52
2017-04-14T00:31:23.706Z,21.67
2017-04-14T00:32:24.210Z,16.62
2017-04-14T00:33:24.274Z,16.48
2017-04-14T00:34:24.323Z,11.55
2017-04-14T00:35:24.383Z,12.13
2017-04-14T00:36:24.463Z,23.87
2017-04-14T00:37:24.893Z,13.02
2017-04-14T00:38:24.966Z,13.65
2017-04-14T00:39:25.798Z,19.50
2017-04-14T00:40:26.633Z,20.80
2017-04-14T00:41:26.755Z,22.70
2017-04-14T00:42:27.181Z,16.97
2017-04-14T00:43:28.045Z,14.08
2017-04-14T00:44:28.208Z,10.72
2017-04-14T00:45:28.291Z,17.23
2017-04-14T00:46:28.337Z,18.57
2017-04-14T00:47:28.774Z,20.22
2017-04-14T00:48:28.962Z,16.38
2017-04-14T00:49:29.058Z,19.03
2017-04-14T00:50:29.139Z,12.68
2017-04-14T00:51:29.960Z,16.15
2017-04-14T00:52:30.454Z,14.42
2017-04-14T00:53:30.535Z,22.88
2017-04-14T00:54:31.298Z,7.90
2017-04-14T00:55:31.407Z,8.52
2017-04-14T00:56:31.475Z,14.47
2017-04-14T00:57:31.883Z,16.72
2017-04-14T00:58:32.341Z,10.40
2017-04-14T00:59:32.401Z,12.22
2017-04-14T01:00:32.466Z,26.62
2017-04-14T01:01:32.513Z,27.90
2017-04-14T01:02:33.276Z,26.70
2017-04-14T01:03:33.322Z,21.57
2017-04-14T01:04:33.428Z,16.65
2017-04-14T01:05:33.607Z,16.73
2017-04-14T01:06:33.668Z,26.80
2017-04-14T01:07:34.160Z,15.68
2017-04-14T01:08:34.505Z,26.27
2017-04-14T01:09:34.542Z,22.28
2017-04-14T01:10:34.646Z,15.48
2017-04-14T01:11:34.780Z,13.00
2017-04-14T01:12:35.200Z,19.33
2017-04-14T01:13:35.395Z,10.07
2017-04-14T01:14:35.426Z,19.68
2017-04-14T01:15:35.435Z,16.20
2017-04-14T01:16:35.450Z,16.55
2017-04-14T01:17:36.638Z,32.68
2017-04-14T01:18:36.682Z,24.77
2017-04-14T01:19:36.875Z,16.32
2017-04-14T01:20:36.979Z,28.30
2017-04-14T01:21:37.150Z,21.32
2017-04-14T01:22:37.811Z,20.38
2017-04-14T01:23:37.888Z,19.22
2017-04-14T01:24:38.672Z,20.60
2017-04-14T01:25:39.433Z,18.15
2017-04-14T01:26:39.556Z,17.90
2017-04-14T01:27:40.687Z,30.48
2017-04-14T01:28:41.501Z,21.77
2017-04-14T01:29:41.582Z,27.12
2017-04-14T01:30:41.623Z,15.63
2017-04-14T01:31:41.701Z,28.42
2017-04-14T01:32:42.041Z,15.42
2017-04-14T01:33:49.399Z,23.33
2017-04-14T01:34:49.459Z,16.40
2017-04-14T01:35:49.532Z,19.37
2017-04-14T01:36:49.588Z,19.10
2017-04-14T01:37:49.961Z,23.95
2017-04-14T01:38:50.019Z,22.13
2017-04-14T01:39:50.151Z,15.48
2017-04-14T01:40:50.158Z,14.13
2017-04-14T01:41:50.211Z,17.15
2017-04-14T01:42:50.611Z,23.55
2017-04-14T01:43:50.687Z,18.38
2017-04-14T01:44:50.882Z,18.30
2017-04-14T01:45:50.911Z,25.63
2017-04-14T01:46:58.318Z,20.90
2017-04-14T01:48:02.383Z,31.90
2017-04-14T01:49:02.449Z,16.78
2017-04-14T01:50:02.644Z,14.38
2017-04-14T01:51:03.466Z,21.38
2017-04-14T01:52:03.586Z,24.03
2017-04-14T01:53:03.988Z,13.85
2017-04-14T01:54:03.986Z,17.97
2017-04-14T01:55:04.025Z,14.95
2017-04-14T01:56:04.153Z,14.98
2017-04-14T01:57:04.273Z,12.78
2017-04-14T01:58:04.830Z,13.45
2017-04-14T01:59:05.600Z,16.60
2017-04-14T02:00:05.706Z,20.10
2017-04-14T02:01:05.860Z,17.02
2017-04-14T02:02:05.890Z,30.38
2017-04-14T02:03:07.092Z,15.65
2017-04-14T02:04:07.199Z,13.55
2017-04-14T02:05:07.297Z,16.70
2017-04-14T02:06:07.443Z,24.88
2017-04-14T02:07:08.248Z,18.22
2017-04-14T02:08:08.597Z,20.23
2017-04-14T02:09:08.631Z,13.50
2017-04-14T02:10:08.901Z,17.77
2017-04-14T02:11:08.936Z,12.65
2017-04-14T02:12:08.989Z,17.88
2017-04-14T02:13:09.548Z,19.27
2017-04-14T02:14:09.604Z,19.55
2017-04-14T02:15:09.731Z,25.12
2017-04-14T02:16:09.794Z,19.43
2017-04-14T02:17:09.875Z,25.15
2017-04-14T02:18:10.299Z,18.58
2017-04-14T02:19:10.383Z,23.68
2017-04-14T02:20:10.441Z,19.50
2017-04-14T02:21:10.484Z,14.15
2017-04-14T02:22:10.510Z,16.07
2017-04-14T02:23:10.936Z,22.10
2017-04-14T02:24:11.729Z,17.93
2017-04-14T02:25:11.783Z,20.43
2017-04-14T02:26:11.906Z,12.70
2017-04-14T02:27:11.952Z,17.93
2017-04-14T02:28:12.335Z,14.68
2017-04-14T02:29:12.411Z,21.37
2017-04-14T02:30:13.275Z,17.88
2017-04-14T02:31:13.353Z,14.25
2017-04-14T02:32:13.381Z,14.57
2017-04-14T02:33:13.784Z,17.88
2017-04-14T02:34:13.849Z,30.32
2017-04-14T02:35:13.991Z,17.17
2017-04-14T02:36:14.078Z,15.62
2017-04-14T02:37:14.189Z,17.67
2017-04-14T02:38:14.734Z,16.88
2017-04-14T02:39:14.793Z,14.50
2017-04-14T02:40:14.883Z,21.07
2017-04-14T02:41:15.019Z,13.63
2017-04-14T02:42:15.065Z,15.03
2017-04-14T02:43:16.259Z,19.12
2017-04-14T02:44:16.260Z,23.75
2017-04-14T02:45:16.368Z,18.88
2017-04-14T02:46:17.161Z,17.93
2017-04-14T02:47:17.315Z,24.40
2017-04-14T02:48:17.865Z,13.25
2017-04-14T02:49:17.966Z,15.83
2017-04-14T02:50:18.066Z,20.45
2017-04-14T02:51:18.092Z,19.02
2017-04-14T02:52:18.121Z,15.57
2017-04-14T02:53:18.594Z,13.12
2017-04-14T02:54:18.657Z,7.60
2017-04-14T02:55:18.826Z,16.53
2017-04-14T02:56:18.847Z,13.60
2017-04-14T02:57:18.919Z,28.22
2017-04-14T02:58:19.364Z,20.45
2017-04-14T02:59:19.363Z,26.02
2017-04-14T03:00:19.431Z,14.10
2017-04-14T03:01:19.555Z,17.90
2017-04-14T03:02:19.630Z,14.85
2017-04-14T03:03:20.739Z,15.40
2017-04-14T03:04:20.773Z,19.68
2017-04-14T03:05:20.864Z,24.38
2017-04-14T03:06:21.106Z,15.70
2017-04-14T03:07:21.187Z,25.02
2017-04-14T03:08:21.610Z,15.67
2017-04-14T03:09:21.653Z,18.60
2017-04-14T03:10:21.727Z,18.47
2017-04-14T03:11:21.786Z,19.08
2017-04-14T03:12:21.882Z,17.13
2017-04-14T03:13:22.379Z,18.63
2017-04-14T03:14:22.479Z,15.13
2017-04-14T03:15:22.553Z,16.85
2017-04-14T03:16:23.344Z,19.37
2017-04-14T03:17:23.464Z,24.03
2017-04-14T03:18:23.902Z,21.33
2017-04-14T03:19:24.475Z,17.67
2017-04-14T03:20:24.546Z,16.83
2017-04-14T03:21:24.607Z,10.10
2017-04-14T03:22:24.673Z,16.70
2017-04-14T03:23:25.336Z,16.60
2017-04-14T03:24:25.388Z,25.53
2017-04-14T03:25:25.436Z,28.85
2017-04-14T03:26:25.509Z,17.80
2017-04-14T03:27:25.537Z,18.15
2017-04-14T03:28:25.998Z,21.95
2017-04-14T03:29:26.794Z,30.17
2017-04-14T03:30:26.849Z,29.63
2017-04-14T03:31:26.912Z,23.13
2017-04-14T03:32:27.016Z,17.78
2017-04-14T03:33:27.450Z,30.85
2017-04-14T03:34:27.465Z,19.80
2017-04-14T03:35:27.621Z,28.32
2017-04-14T03:36:27.722Z,28.92
2017-04-14T03:37:27.818Z,27.92
2017-04-14T03:38:28.158Z,23.33
2017-04-14T03:39:28.207Z,21.47
2017-04-14T03:40:28.260Z,23.75
2017-04-14T03:41:28.274Z,21.72
2017-04-14T03:42:28.417Z,17.23
2017-04-14T03:43:28.749Z,22.35
2017-04-14T03:44:28.826Z,11.27
2017-04-14T03:45:28.833Z,19.25
2017-04-14T03:46:28.863Z,22.35
2017-04-14T03:47:28.933Z,28.48
2017-04-14T03:48:29.424Z,20.35
2017-04-14T03:49:29.624Z,20.78
2017-04-14T03:50:29.657Z,21.92
2017-04-14T03:51:29.747Z,34.27
2017-04-14T03:52:29.864Z,15.18
2017-04-14T03:53:30.356Z,26.37
2017-04-14T03:54:30.390Z,25.42
2017-04-14T03:55:30.427Z,22.35
2017-04-14T03:56:30.506Z,19.68
2017-04-14T03:57:30.580Z,14.03
2017-04-14T03:58:31.734Z,27.37
2017-04-14T03:59:31.774Z,22.57
2017-04-14T04:00:31.829Z,20.78
2017-04-14T04:01:31.886Z,24.22
2017-04-14T04:02:31.916Z,18.33
2017-04-14T04:03:32.487Z,18.97
2017-04-14T04:04:32.718Z,19.93
2017-04-14T04:05:32.737Z,27.47
2017-04-14T04:06:32.910Z,21.77
2017-04-14T04:07:33.190Z,20.32
2017-04-14T04:08:33.502Z,20.98
2017-04-14T04:09:33.596Z,22.57
2017-04-14T04:10:33.653Z,25.97
2017-04-14T04:11:33.706Z,25.18
2017-04-14T04:12:33.762Z,20.15
2017-04-14T04:13:34.293Z,35.05
2017-04-14T04:14:34.268Z,40.67
2017-04-14T04:15:34.292Z,24.78
2017-04-14T04:16:37.521Z,24.98
2017-04-14T04:17:37.686Z,23.23
2017-04-14T04:18:38.005Z,23.20
2017-04-14T04:19:38.130Z,24.13
2017-04-14T04:20:38.154Z,14.27
2017-04-14T04:21:38.234Z,29.57
2017-04-14T04:22:38.294Z,28.63
2017-04-14T04:23:38.751Z,18.82
2017-04-14T04:24:39.583Z,19.08
2017-04-14T04:25:39.662Z,28.57
2017-04-14T04:26:39.749Z,21.93
2017-04-14T04:27:39.792Z,19.03
2017-04-14T04:28:41.028Z,18.95
2017-04-14T04:29:41.835Z,21.97
2017-04-14T04:30:41.926Z,20.62
2017-04-14T04:31:47.256Z,29.63
2017-04-14T04:32:52.665Z,19.20
2017-04-14T04:33:58.441Z,22.45
2017-04-14T04:34:58.570Z,20.87
2017-04-14T04:35:58.606Z,20.50
2017-04-14T04:36:58.670Z,18.02
2017-04-14T04:37:58.858Z,23.53
2017-04-14T04:38:59.175Z,19.22
2017-04-14T04:39:59.263Z,17.78
2017-04-14T04:40:59.247Z,31.60
2017-04-14T04:41:59.281Z,21.33
2017-04-14T04:42:59.318Z,13.85
2017-04-14T04:43:59.719Z,26.90
2017-04-14T04:44:59.782Z,27.95
2017-04-14T04:46:00.600Z,17.15
2017-04-14T04:47:00.618Z,21.45
2017-04-14T04:48:00.697Z,32.15
2017-04-14T04:49:01.132Z,19.37
2017-04-14T04:50:02.392Z,21.58
2017-04-14T04:51:02.415Z,19.22
2017-04-14T04:52:02.515Z,24.80
2017-04-14T04:53:02.596Z,17.97
2017-04-14T04:54:03.722Z,20.27
2017-04-14T04:55:03.874Z,20.45
2017-04-14T04:56:03.910Z,23.40
2017-04-14T04:57:10.543Z,21.20
2017-04-14T04:58:10.580Z,33.33
2017-04-14T04:59:10.917Z,14.42
2017-04-14T05:00:10.945Z,35.27
2017-04-14T05:01:11.720Z,18.10
2017-04-14T05:02:11.752Z,16.35
2017-04-14T05:03:11.790Z,21.65
2017-04-14T05:04:12.370Z,22.65
2017-04-14T05:05:12.526Z,12.87
2017-04-14T05:06:12.572Z,23.25
2017-04-14T05:07:12.759Z,20.00
2017-04-14T05:08:12.866Z,16.98
2017-04-14T05:09:13.168Z,18.30
2017-04-14T05:10:13.229Z,18.08
2017-04-14T05:11:13.296Z,13.07
2017-04-14T05:12:13.316Z,19.82
2017-04-14T05:13:13.331Z,20.97
2017-04-14T05:14:13.802Z,17.67
2017-04-14T05:15:13.853Z,24.27
2017-04-14T05:16:13.978Z,14.48
2017-04-14T05:17:14.014Z,17.95
2017-04-14T05:18:14.060Z,14.28
2017-04-14T05:19:14.539Z,20.93
2017-04-14T05:20:15.435Z,12.05
2017-04-14T05:21:15.496Z,29.30
2017-04-14T05:22:15.586Z,30.12
2017-04-14T05:23:16.392Z,39.15
2017-04-14T05:24:16.811Z,25.47
2017-04-14T05:25:16.923Z,18.58
2017-04-14T05:26:17.051Z,31.37
2017-04-14T05:27:17.102Z,28.28
2017-04-14T05:28:17.093Z,23.50
2017-04-14T05:29:17.457Z,17.03
2017-04-14T05:30:17.642Z,20.58
2017-04-14T05:31:17.835Z,25.35
2017-04-14T05:32:18.008Z,17.67
2017-04-14T05:46:18.414Z,25.93
2017-04-14T05:47:18.489Z,17.63
2017-04-14T05:48:18.591Z,23.42
2017-04-14T05:49:18.633Z,14.20
2017-04-14T05:50:18.681Z,28.75
2017-04-14T05:51:19.143Z,23.48
2017-04-14T05:52:19.186Z,11.78
2017-04-14T05:53:19.290Z,20.85
2017-04-14T05:54:19.313Z,27.28
2017-04-14T05:55:19.342Z,14.33
2017-04-14T05:56:19.777Z,22.13
2017-04-14T05:57:19.868Z,22.83
2017-04-14T05:58:19.904Z,14.50
2017-04-14T05:59:19.993Z,12.70
2017-04-14T06:00:20.143Z,12.55
2017-04-14T06:01:20.546Z,20.62
2017-04-14T06:02:20.693Z,14.97
2017-04-14T06:03:22.432Z,15.22
2017-04-14T06:04:22.591Z,15.98
2017-04-14T06:05:22.689Z,19.42
2017-04-14T06:06:23.088Z,13.13
2017-04-14T06:07:23.152Z,18.77
2017-04-14T06:08:23.243Z,10.50
2017-04-14T06:09:23.310Z,21.05
2017-04-14T06:10:23.410Z,29.43
2017-04-14T06:11:23.755Z,17.10
2017-04-14T06:12:23.820Z,11.85
2017-04-14T06:13:23.896Z,15.68
2017-04-14T06:14:23.980Z,19.70
2017-04-14T06:15:24.091Z,19.62
2017-04-14T06:16:24.868Z,11.12
2017-04-14T06:17:25.061Z,17.88
2017-04-14T06:18:25.192Z,12.02
2017-04-14T06:19:25.504Z,25.40
2017-04-14T06:20:25.673Z,14.77
2017-04-14T06:21:26.099Z,12.03
2017-04-14T06:22:26.254Z,13.93
2017-04-14T06:23:26.334Z,14.92
2017-04-14T06:24:26.457Z,16.70
2017-04-14T06:25:26.579Z,28.57
2017-04-14T06:26:27.161Z,14.73
2017-04-14T06:27:27.982Z,14.28
2017-04-14T06:28:28.055Z,14.28
2017-04-14T06:29:28.145Z,11.83
2017-04-14T06:30:28.278Z,15.87
2017-04-14T06:31:28.693Z,14.00
2017-04-14T06:32:28.787Z,14.43
2017-04-14T06:33:28.875Z,19.42
2017-04-14T06:34:28.932Z,15.15
2017-04-14T06:35:29.008Z,8.70
2017-04-14T06:36:29.576Z,16.40
2017-04-14T06:37:29.677Z,18.77
2017-04-14T06:38:29.779Z,17.32
2017-04-14T06:39:30.624Z,10.98
2017-04-14T06:40:30.754Z,11.20
2017-04-14T06:41:31.173Z,10.53
2017-04-14T06:42:31.266Z,12.60
2017-04-14T06:43:31.431Z,11.97
2017-04-14T06:44:31.579Z,15.87
2017-04-14T06:45:31.681Z,16.53
2017-04-14T06:46:32.154Z,11.82
2017-04-14T06:47:32.267Z,23.53
2017-04-14T06:48:32.403Z,21.87
2017-04-14T06:49:34.269Z,18.98
2017-04-14T06:50:34.264Z,14.28
2017-04-14T06:51:33.981Z,16.23
2017-04-14T06:52:34.035Z,14.17
2017-04-14T06:53:34.109Z,11.72
2017-04-14T06:54:34.219Z,16.68
2017-04-14T06:55:34.300Z,19.45
2017-04-14T06:56:34.699Z,11.25
2017-04-14T06:57:34.789Z,20.10
2017-04-14T06:58:34.903Z,26.20
2017-04-14T06:59:34.982Z,19.28
2017-04-14T07:00:35.145Z,22.07
2017-04-14T07:01:35.479Z,18.37
2017-04-14T07:02:35.722Z,16.22
2017-04-14T07:03:36.172Z,12.00
2017-04-14T07:04:36.283Z,8.27
2017-04-14T07:05:36.539Z,17.32
2017-04-14T07:06:36.991Z,17.63
2017-04-14T07:07:37.117Z,22.50
2017-04-14T07:08:37.991Z,17.88
2017-04-14T07:09:38.086Z,15.18
2017-04-14T07:10:38.238Z,10.73
2017-04-14T07:11:38.723Z,15.25
2017-04-14T07:12:38.853Z,13.12
2017-04-14T07:13:39.110Z,8.58
2017-04-14T07:14:39.137Z,26.48
2017-04-14T07:15:39.259Z,20.52
2017-04-14T07:16:40.350Z,13.60
2017-04-14T07:17:40.422Z,11.18
2017-04-14T07:18:40.729Z,20.02
2017-04-14T07:19:40.955Z,17.38
2017-04-14T07:20:41.023Z,12.10
2017-04-14T07:21:41.407Z,10.15
2017-04-14T07:22:41.614Z,8.58
2017-04-14T07:23:42.029Z,15.05
2017-04-14T07:24:42.187Z,16.02
2017-04-14T07:25:42.305Z,9.97
2017-04-14T07:26:42.895Z,11.00
2017-04-14T07:27:42.956Z,9.97
2017-04-14T07:28:46.889Z,19.05
2017-04-14T07:29:47.042Z,17.35
2017-04-14T07:30:47.271Z,15.97
2017-04-14T07:31:47.758Z,14.48
2017-04-14T07:32:48.069Z,14.60
2017-04-14T07:33:48.279Z,17.22
2017-04-14T07:34:48.373Z,12.90
2017-04-14T07:35:48.839Z,18.38
2017-04-14T07:36:49.304Z,11.22
2017-04-14T07:37:49.542Z,18.87
2017-04-14T07:38:49.590Z,8.68
2017-04-14T07:39:49.740Z,18.92
2017-04-14T07:40:49.798Z,13.48
2017-04-14T07:41:50.288Z,16.88
2017-04-14T07:42:50.462Z,12.42
2017-04-14T07:43:50.495Z,14.08
2017-04-14T07:44:50.624Z,7.55
2017-04-14T07:45:50.686Z,15.60
2017-04-14T07:46:51.830Z,9.50
2017-04-14T07:47:51.943Z,12.60
2017-04-14T07:48:52.151Z,10.58
2017-04-14T07:49:52.231Z,16.33
2017-04-14T07:50:52.371Z,12.12
2017-04-14T07:51:53.090Z,11.37
2017-04-14T07:52:53.918Z,13.50
2017-04-14T07:53:55.143Z,12.92
2017-04-14T07:54:55.184Z,14.35
2017-04-14T07:55:55.312Z,10.67
2017-04-14T07:56:55.836Z,15.72
2017-04-14T07:57:56.151Z,9.23
2017-04-14T07:58:56.186Z,6.87
2017-04-14T07:59:56.251Z,12.07
2017-04-14T08:00:56.342Z,4.43
2017-04-14T08:01:57.438Z,10.00
2017-04-14T08:02:57.503Z,12.05
2017-04-14T08:03:57.545Z,11.60
2017-04-14T08:04:57.613Z,8.40
2017-04-14T08:05:57.891Z,11.60
2017-04-14T08:06:58.422Z,9.90
2017-04-14T08:07:58.484Z,8.62
2017-04-14T08:08:58.527Z,5.43
2017-04-14T08:09:58.597Z,7.27
2017-04-14T08:10:58.671Z,10.28
2017-04-14T08:11:59.170Z,10.52
2017-04-14T08:12:59.327Z,11.25
2017-04-14T08:13:59.445Z,7.13
2017-04-14T08:14:59.553Z,7.15
2017-04-14T08:15:59.642Z,8.33
2017-04-14T08:17:00.095Z,9.07
2017-04-14T08:18:00.297Z,10.58
2017-04-14T08:19:00.463Z,7.42
2017-04-14T08:20:00.636Z,5.18
2017-04-14T08:21:00.675Z,9.37
2017-04-14T08:22:01.070Z,4.42
2017-04-14T08:23:01.206Z,5.60
2017-04-14T08:24:01.429Z,8.30
2017-04-14T08:25:01.587Z,6.63
2017-04-14T08:26:01.677Z,5.18
2017-04-14T08:27:02.056Z,8.02
2017-04-14T08:28:03.244Z,9.02
2017-04-14T08:29:04.094Z,7.83
2017-04-14T08:30:04.264Z,5.78
2017-04-14T08:31:10.994Z,8.97
2017-04-14T08:32:11.508Z,8.02
2017-04-14T08:33:11.800Z,14.45
2017-04-14T08:34:12.109Z,8.63
2017-04-14T08:35:12.809Z,8.18
2017-04-14T08:36:13.007Z,3.80
2017-04-14T08:37:13.360Z,9.30
2017-04-14T08:38:13.446Z,8.48
2017-04-14T08:39:13.558Z,11.15
2017-04-14T08:40:13.803Z,8.48
2017-04-14T08:41:14.499Z,9.50
2017-04-14T08:42:15.751Z,10.58
2017-04-14T08:43:16.035Z,9.62
2017-04-14T08:44:16.124Z,9.68
2017-04-14T08:45:16.255Z,5.82
2017-04-14T08:46:16.371Z,5.70
2017-04-14T08:47:17.538Z,13.05
2017-04-14T08:48:17.631Z,13.33
2017-04-14T08:49:17.746Z,9.68
2017-04-14T08:50:18.205Z,6.95
2017-04-14T08:51:19.277Z,8.73
2017-04-14T08:52:20.242Z,10.30
2017-04-14T08:53:20.342Z,7.83
2017-04-14T08:54:20.619Z,4.75
2017-04-14T08:55:20.714Z,9.93
2017-04-14T08:56:21.354Z,7.48
2017-04-14T08:57:21.752Z,16.48
2017-04-14T08:58:21.839Z,12.90
2017-04-14T08:59:21.919Z,5.12
2017-04-14T09:00:22.024Z,7.78
2017-04-14T09:01:22.376Z,3.45
2017-04-14T09:02:23.041Z,7.90
2017-04-14T09:03:23.178Z,34.07
2017-04-14T09:04:23.264Z,7.18
2017-04-14T09:05:23.347Z,7.15
2017-04-14T09:06:23.700Z,10.37
2017-04-14T09:07:24.149Z,7.48
2017-04-14T09:08:24.932Z,5.40
2017-04-14T09:09:25.090Z,7.40
2017-04-14T09:10:25.270Z,5.47
2017-04-14T09:11:25.431Z,10.08
2017-04-14T09:12:26.528Z,5.85
2017-04-14T09:13:26.694Z,8.07
2017-04-14T09:14:26.903Z,6.35
2017-04-14T09:15:26.991Z,9.72
2017-04-14T09:16:27.103Z,7.90
2017-04-14T09:17:27.744Z,5.43
2017-04-14T09:18:27.870Z,8.13
2017-04-14T09:19:28.012Z,8.85
2017-04-14T09:20:28.195Z,7.12
2017-04-14T09:21:28.345Z,7.67
2017-04-14T09:22:28.797Z,10.42
2017-04-14T09:23:28.838Z,5.27
2017-04-14T09:24:28.919Z,4.50
2017-04-14T09:25:28.980Z,8.23
2017-04-14T09:26:29.138Z,6.68
2017-04-14T09:27:29.651Z,6.57
2017-04-14T09:28:29.746Z,11.50
2017-04-14T09:29:30.610Z,6.43
2017-04-14T09:30:30.665Z,5.90
2017-04-14T09:31:30.911Z,9.43
2017-04-14T09:32:31.398Z,6.37
2017-04-14T09:33:31.487Z,5.98
2017-04-14T09:34:31.576Z,7.05
2017-04-14T09:35:31.734Z,11.25
2017-04-14T09:36:31.960Z,5.93
2017-04-14T09:37:32.379Z,8.28
2017-04-14T09:38:32.951Z,6.48
2017-04-14T09:39:33.046Z,6.03
2017-04-14T09:40:33.094Z,5.48
2017-04-14T09:41:33.951Z,8.57
2017-04-14T09:42:34.458Z,8.05
2017-04-14T09:43:34.562Z,8.62
2017-04-14T09:44:34.945Z,11.48
2017-04-14T09:45:35.110Z,9.58
2017-04-14T09:46:35.231Z,12.53
2017-04-14T09:47:35.806Z,9.40
2017-04-14T09:48:35.959Z,6.07
2017-04-14T09:49:36.091Z,6.12
2017-04-14T09:50:36.223Z,10.93
2017-04-14T09:51:36.400Z,13.88
2017-04-14T09:52:36.509Z,7.78
2017-04-14T09:53:37.332Z,4.63
2017-04-14T09:54:37.373Z,15.18
2017-04-14T09:55:37.592Z,7.90
2017-04-14T09:56:37.760Z,8.85
2017-04-14T09:57:38.454Z,8.95
2017-04-14T09:58:38.658Z,5.48
2017-04-14T09:59:38.760Z,9.08
2017-04-14T10:00:39.828Z,7.28
2017-04-14T10:01:40.031Z,7.85
2017-04-14T10:02:40.620Z,10.17
2017-04-14T10:03:40.746Z,9.22
2017-04-14T10:04:40.802Z,5.02
2017-04-14T10:05:40.887Z,10.57
2017-04-14T10:06:40.997Z,6.85
2017-04-14T10:07:41.590Z,8.33
2017-04-14T10:08:41.622Z,6.12
2017-04-14T10:09:41.876Z,6.52
2017-04-14T10:10:42.126Z,3.20
2017-04-14T10:11:42.167Z,4.43
2017-04-14T10:12:42.532Z,3.42
2017-04-14T10:13:43.728Z,5.08
2017-04-14T10:14:43.819Z,3.23
2017-04-14T10:15:44.097Z,2.90
2017-04-14T10:16:44.129Z,5.52
2017-04-14T10:17:44.797Z,2.92
2017-04-14T10:18:44.838Z,7.28
2017-04-14T10:19:44.879Z,3.62
2017-04-14T10:20:44.901Z,4.30
2017-04-14T10:21:44.977Z,5.77
2017-04-14T10:22:45.524Z,4.55
2017-04-14T10:23:45.639Z,6.73
2017-04-14T10:24:45.725Z,2.52
2017-04-14T10:25:45.811Z,8.60
2017-04-14T10:26:46.078Z,9.32
2017-04-14T10:27:46.615Z,4.70
2017-04-14T10:28:46.706Z,4.12
2017-04-14T10:29:46.761Z,3.83
2017-04-14T10:30:46.929Z,7.52
2017-04-14T10:31:47.974Z,6.63
2017-04-14T10:32:48.395Z,4.80
2017-04-14T10:33:48.542Z,5.85
2017-04-14T10:34:48.754Z,4.13
2017-04-14T10:35:48.797Z,4.78
2017-04-14T10:36:48.827Z,5.48
2017-04-14T10:37:49.179Z,5.82
2017-04-14T10:38:50.033Z,8.17
2017-04-14T10:39:50.254Z,7.03
2017-04-14T10:40:50.470Z,4.15
2017-04-14T10:41:50.765Z,5.08
2017-04-14T10:42:51.313Z,5.55
2017-04-14T10:43:52.377Z,5.13
2017-04-14T10:44:52.545Z,10.52
2017-04-14T10:45:53.869Z,3.95
2017-04-14T10:46:54.039Z,6.33
2017-04-14T10:47:54.507Z,6.75
2017-04-14T10:48:54.598Z,8.70
2017-04-14T10:49:54.723Z,5.62
2017-04-14T10:50:54.743Z,6.77
2017-04-14T10:51:56.151Z,2.58
2017-04-14T10:52:56.799Z,9.45
2017-04-14T10:53:57.644Z,3.12
2017-04-14T10:54:57.698Z,4.78
2017-04-14T10:55:57.801Z,5.28
2017-04-14T10:56:58.102Z,4.75
2017-04-14T10:57:58.597Z,3.57
2017-04-14T10:58:58.705Z,5.17
2017-04-14T10:59:58.887Z,6.25
2017-04-14T11:00:59.736Z,4.20
2017-04-14T11:01:59.992Z,4.55
2017-04-14T11:03:00.957Z,6.33
2017-04-14T11:04:01.968Z,4.28
2017-04-14T11:05:01.987Z,6.65
2017-04-14T11:06:02.103Z,6.42
2017-04-14T11:07:02.913Z,6.17
2017-04-14T11:08:03.369Z,6.40
2017-04-14T11:09:03.445Z,11.15
2017-04-14T11:10:04.594Z,7.60
2017-04-14T11:11:04.858Z,4.80
2017-04-14T11:12:04.963Z,4.63
2017-04-14T11:13:05.323Z,6.10
2017-04-14T11:14:06.164Z,7.20
2017-04-14T11:15:06.236Z,5.42
2017-04-14T11:16:06.374Z,4.35
2017-04-14T11:17:07.277Z,5.22
2017-04-14T11:18:07.877Z,8.98
2017-04-14T11:19:08.012Z,5.27
2017-04-14T11:20:08.153Z,5.67
2017-04-14T11:21:08.369Z,4.23
2017-04-14T11:22:08.469Z,10.82
2017-04-14T11:23:09.022Z,9.82
2017-04-14T11:24:09.037Z,8.72
2017-04-14T11:25:09.146Z,3.98
2017-04-14T11:26:09.209Z,4.80
2017-04-14T11:27:09.332Z,5.25
2017-04-14T11:28:10.181Z,4.15
2017-04-14T11:29:10.299Z,9.62
2017-04-14T11:30:10.614Z,4.60
2017-04-14T11:31:10.691Z,6.82
2017-04-14T11:32:10.840Z,8.62
2017-04-14T11:33:11.557Z,4.07
2017-04-14T11:34:11.621Z,8.12
2017-04-14T11:35:12.135Z,11.52
2017-04-14T11:36:12.446Z,8.23
2017-04-14T11:37:12.552Z,7.50
2017-04-14T11:38:13.070Z,7.57
2017-04-14T11:39:13.183Z,6.03
2017-04-14T11:40:14.275Z,7.32
2017-04-14T11:41:14.432Z,4.88
2017-04-14T11:42:14.761Z,8.90
2017-04-14T11:43:15.261Z,8.63
2017-04-14T11:44:15.397Z,10.50
2017-04-14T11:45:15.674Z,6.45
2017-04-14T11:46:15.963Z,3.27
2017-04-14T11:47:16.038Z,9.60
2017-04-14T11:48:16.442Z,8.20
2017-04-14T11:49:16.640Z,11.88
2017-04-14T11:50:17.253Z,7.30
2017-04-14T11:51:17.483Z,6.58
2017-04-14T11:52:17.726Z,8.70
2017-04-14T11:53:18.088Z,6.87
2017-04-14T11:54:18.287Z,8.52
2017-04-14T11:55:19.111Z,9.17
2017-04-14T11:56:19.226Z,11.23
2017-04-14T11:57:19.397Z,9.55
2017-04-14T11:58:19.887Z,10.15
2017-04-14T11:59:19.958Z,7.08
2017-04-14T12:00:20.759Z,6.53
2017-04-14T12:01:20.864Z,10.23
2017-04-14T12:02:20.939Z,8.58
2017-04-14T12:03:21.320Z,12.88
2017-04-14T12:04:22.051Z,13.75
2017-04-14T12:05:22.171Z,7.72
2017-04-14T12:06:22.260Z,13.92
2017-04-14T12:07:22.325Z,9.97
2017-04-14T12:08:22.699Z,5.97
2017-04-14T12:09:22.792Z,12.88
2017-04-14T12:10:22.879Z,8.30
2017-04-14T12:11:23.010Z,11.00
2017-04-14T12:12:23.854Z,9.80
2017-04-14T12:13:24.204Z,9.07
2017-04-14T12:14:24.331Z,17.18
2017-04-14T12:15:24.508Z,6.65
2017-04-14T12:16:24.593Z,9.33
2017-04-14T12:17:24.742Z,8.35
2017-04-14T12:18:24.896Z,13.87
2017-04-14T12:19:25.135Z,9.85
2017-04-14T12:20:25.287Z,10.48
2017-04-14T12:21:25.369Z,16.23
2017-04-14T12:22:25.752Z,12.08
2017-04-14T12:23:26.256Z,15.33
2017-04-14T12:24:26.284Z,15.17
2017-04-14T12:25:26.327Z,13.43
2017-04-14T12:26:26.469Z,10.25
2017-04-14T12:27:26.523Z,10.95
2017-04-14T12:28:27.330Z,11.30
2017-04-14T12:29:27.552Z,9.73
2017-04-14T12:30:27.700Z,13.07
2017-04-14T12:31:28.018Z,15.13
2017-04-14T12:32:28.180Z,11.63
2017-04-14T12:33:28.745Z,14.50
2017-04-14T12:34:28.843Z,15.22
2017-04-14T12:35:29.056Z,11.10
2017-04-14T12:36:29.174Z,16.30
2017-04-14T12:37:29.324Z,17.43
2017-04-14T12:38:29.765Z,16.10
2017-04-14T12:39:29.908Z,15.88
2017-04-14T12:40:30.028Z,12.13
2017-04-14T12:41:30.129Z,15.12
2017-04-14T12:42:30.362Z,11.43
2017-04-14T12:43:30.893Z,11.25
2017-04-14T12:44:31.212Z,11.20
2017-04-14T12:45:31.491Z,11.57
2017-04-14T12:46:31.630Z,13.82
2017-04-14T12:47:31.794Z,13.70
2017-04-14T12:48:32.391Z,9.12
2017-04-14T12:49:34.119Z,13.53
2017-04-14T12:50:34.377Z,8.98
2017-04-14T12:51:34.483Z,7.03
2017-04-14T12:52:34.667Z,7.57
2017-04-14T12:53:35.881Z,11.05
2017-04-14T12:54:36.360Z,7.45
2017-04-14T12:55:36.493Z,9.77
2017-04-14T12:56:37.363Z,6.05
2017-04-14T12:57:38.589Z,9.73
2017-04-14T12:58:39.088Z,12.48
2017-04-14T12:59:39.248Z,10.13
2017-04-14T13:00:39.339Z,11.33
2017-04-14T13:01:39.705Z,8.62
2017-04-14T13:02:39.757Z,8.32
2017-04-14T13:03:40.244Z,11.43
2017-04-14T13:04:40.361Z,11.23
2017-04-14T13:05:40.499Z,11.02
2017-04-14T13:06:40.705Z,9.25
2017-04-14T13:07:40.845Z,10.83
2017-04-14T13:08:41.324Z,10.33
2017-04-14T13:09:41.486Z,15.33
2017-04-14T13:10:41.601Z,7.92
2017-04-14T13:11:42.511Z,11.72
2017-04-14T13:12:42.716Z,12.05
2017-04-14T13:13:43.295Z,9.42
2017-04-14T13:14:43.553Z,12.63
2017-04-14T13:15:43.900Z,10.32
2017-04-14T13:16:44.024Z,13.20
2017-04-14T13:17:44.146Z,12.12